Terminal Aerodrome Forecast
Issued by NWS

Home | Current Version | Previous Version | Text Only | Print | Product List | Glossary On
Versions: 1 2 3 4 5 6 7 8 9 10 11 12 13
000
FTUS43 KAPX 290520
TAFPLN
TAF
KPLN 290520Z 2906/3006 VRB03KT P6SM SCT150 BKN250
     FM291200 19007KT P6SM VCSH SCT050 BKN100
     FM291600 25010KT P6SM SCT070
     FM300100 26007KT P6SM SKC=

USA.gov is the U.S. government's official web portal to all federal, state and local government web resources and services.